createdAt,value
2017-10-14T00:01:13.377Z,101917
2017-10-14T00:03:41.461Z,101916
2017-10-14T00:06:09.566Z,101914
2017-10-14T00:08:37.669Z,101914
2017-10-14T00:11:05.769Z,101918
2017-10-14T00:13:33.888Z,101920
2017-10-14T00:16:01.977Z,101932
2017-10-14T00:18:30.079Z,101921
2017-10-14T00:20:58.953Z,101916
2017-10-14T00:23:27.182Z,101914
2017-10-14T00:25:55.349Z,101921
2017-10-14T00:28:23.429Z,101923
2017-10-14T00:30:51.518Z,101919
2017-10-14T00:33:20.664Z,101915
2017-10-14T00:35:49.512Z,101928
2017-10-14T00:38:17.631Z,101923
2017-10-14T00:40:45.717Z,101927
2017-10-14T00:43:13.798Z,101915
2017-10-14T00:45:41.900Z,101921
2017-10-14T00:48:09.988Z,101923
2017-10-14T00:50:38.101Z,101919
2017-10-14T00:53:06.188Z,101922
2017-10-14T00:55:34.306Z,101918
2017-10-14T00:58:02.396Z,101921
2017-10-14T01:00:32.341Z,101919
2017-10-14T01:03:00.659Z,101912
2017-10-14T01:05:28.873Z,101921
2017-10-14T01:07:57.777Z,101257
2017-10-14T01:10:25.920Z,101914
2017-10-14T01:12:54.551Z,101920
2017-10-14T01:15:22.647Z,101903
2017-10-14T01:17:50.763Z,101910
2017-10-14T01:20:19.642Z,101908
2017-10-14T01:22:47.749Z,101907
2017-10-14T01:25:15.833Z,101901
2017-10-14T01:27:43.947Z,101909
2017-10-14T01:30:12.056Z,101914
2017-10-14T01:32:40.140Z,101922
2017-10-14T01:35:08.235Z,101913
2017-10-14T01:37:36.402Z,101917
2017-10-14T01:40:04.487Z,101913
2017-10-14T01:42:32.615Z,101916
2017-10-14T01:45:00.737Z,101914
2017-10-14T01:47:28.833Z,101913
2017-10-14T01:49:56.954Z,101907
2017-10-14T01:52:25.124Z,101900
2017-10-14T01:54:53.227Z,101904
2017-10-14T01:57:21.384Z,101901
2017-10-14T01:59:49.482Z,101907
2017-10-14T02:02:17.595Z,101899
2017-10-14T02:04:46.439Z,101902
2017-10-14T02:07:14.535Z,101910
2017-10-14T02:09:42.633Z,101903
2017-10-14T02:12:10.731Z,101907
2017-10-14T02:14:38.834Z,101899
2017-10-14T02:17:06.911Z,101904
2017-10-14T02:19:35.019Z,101909
2017-10-14T02:22:03.124Z,101911
2017-10-14T02:24:31.564Z,101900
2017-10-14T02:26:59.656Z,101899
2017-10-14T02:29:27.759Z,101904
2017-10-14T02:31:55.910Z,101906
2017-10-14T02:34:23.986Z,101902
2017-10-14T02:36:52.842Z,101902
2017-10-14T02:39:21.696Z,101905
2017-10-14T02:41:49.779Z,101900
2017-10-14T02:44:17.912Z,101911
2017-10-14T02:46:45.988Z,101878
2017-10-14T02:49:14.088Z,101902
2017-10-14T02:51:42.184Z,101895
2017-10-14T02:54:10.404Z,101905
2017-10-14T02:56:38.563Z,101907
2017-10-14T02:59:06.755Z,101906
2017-10-14T03:01:34.863Z,101906
2017-10-14T03:04:02.944Z,101908
2017-10-14T03:06:31.012Z,101906
2017-10-14T03:08:59.103Z,101909
2017-10-14T03:11:27.996Z,101904
2017-10-14T03:13:56.851Z,101907
2017-10-14T03:16:25.028Z,101911
2017-10-14T03:18:53.120Z,101905
2017-10-14T03:21:21.195Z,101902
2017-10-14T03:23:49.309Z,101900
2017-10-14T03:26:17.388Z,101901
2017-10-14T03:28:45.483Z,101899
2017-10-14T03:31:13.607Z,101897
2017-10-14T03:33:41.671Z,101898
2017-10-14T03:36:09.763Z,101895
2017-10-14T03:38:37.876Z,101906
2017-10-14T03:41:05.956Z,101898
2017-10-14T03:43:34.973Z,101895
2017-10-14T03:46:03.056Z,101897
2017-10-14T03:48:32.840Z,101907
2017-10-14T03:51:01.155Z,101904
2017-10-14T03:53:30.030Z,101905
2017-10-14T03:55:58.136Z,101906
2017-10-14T03:58:26.411Z,101895
2017-10-14T04:00:54.727Z,101908
2017-10-14T04:03:23.750Z,101907
2017-10-14T04:05:51.848Z,101905
2017-10-14T04:08:19.943Z,101908
2017-10-14T04:10:48.060Z,101903
2017-10-14T04:13:17.103Z,101909
2017-10-14T04:15:45.189Z,101909
2017-10-14T04:18:13.303Z,101916
2017-10-14T04:20:41.401Z,101913
2017-10-14T04:23:09.508Z,101919
2017-10-14T04:25:37.688Z,101920
2017-10-14T04:28:05.795Z,101912
2017-10-14T04:30:33.879Z,101917
2017-10-14T04:33:01.988Z,101919
2017-10-14T04:35:30.091Z,101925
2017-10-14T04:37:58.215Z,101923
2017-10-14T04:40:26.351Z,101922
2017-10-14T04:42:55.217Z,101923
2017-10-14T04:45:23.324Z,101923
2017-10-14T04:47:53.288Z,101922
2017-10-14T04:50:22.321Z,101923
2017-10-14T04:52:51.711Z,101922
2017-10-14T04:55:19.823Z,101922
2017-10-14T04:57:47.914Z,101922
2017-10-14T05:00:15.991Z,101921
2017-10-14T05:02:44.088Z,101923
2017-10-14T05:05:12.188Z,101916
2017-10-14T05:07:40.312Z,101920
2017-10-14T05:10:08.387Z,101915
2017-10-14T05:12:37.529Z,101921
2017-10-14T05:15:05.624Z,101921
2017-10-14T05:17:34.487Z,101927
2017-10-14T05:20:02.587Z,101918
2017-10-14T05:22:31.452Z,101922
2017-10-14T05:24:59.972Z,101922
2017-10-14T05:27:28.816Z,101928
2017-10-14T05:29:56.890Z,101919
2017-10-14T05:32:25.272Z,101927
2017-10-14T05:34:53.364Z,101920
2017-10-14T05:37:21.481Z,101927
2017-10-14T05:39:49.564Z,101923
2017-10-14T05:42:18.608Z,101923
2017-10-14T05:44:46.705Z,101922
2017-10-14T05:47:14.812Z,101931
2017-10-14T05:49:42.975Z,101931
2017-10-14T05:52:11.823Z,101930
2017-10-14T05:54:41.027Z,101940
2017-10-14T05:57:09.868Z,101940
2017-10-14T05:59:37.972Z,101933
2017-10-14T06:02:06.051Z,101941
2017-10-14T06:04:34.903Z,101944
2017-10-14T06:07:03.001Z,101949
2017-10-14T06:09:31.093Z,101950
2017-10-14T06:11:59.961Z,101955
2017-10-14T06:14:28.036Z,101956
2017-10-14T06:16:56.158Z,101947
2017-10-14T06:19:24.230Z,101953
2017-10-14T06:21:52.342Z,101962
2017-10-14T06:24:20.482Z,101960
2017-10-14T06:26:48.588Z,101959
2017-10-14T06:29:17.899Z,101971
2017-10-14T06:31:45.977Z,101970
2017-10-14T06:34:14.828Z,101968
2017-10-14T06:36:42.952Z,101968
2017-10-14T06:39:11.071Z,101970
2017-10-14T06:41:39.179Z,101967
2017-10-14T06:44:07.366Z,101963
2017-10-14T06:46:36.227Z,101979
2017-10-14T06:49:04.371Z,101977
2017-10-14T06:51:32.504Z,101980
2017-10-14T06:54:00.621Z,101977
2017-10-14T06:56:28.928Z,101974
2017-10-14T06:58:58.519Z,101975
2017-10-14T07:01:26.613Z,101975
2017-10-14T07:03:54.723Z,101975
2017-10-14T07:06:22.939Z,101985
2017-10-14T07:08:51.481Z,101990
2017-10-14T07:11:20.357Z,101993
2017-10-14T07:13:48.463Z,101999
2017-10-14T07:16:16.575Z,102010
2017-10-14T07:18:44.695Z,101999
2017-10-14T07:21:12.783Z,102004
2017-10-14T07:23:40.949Z,102002
2017-10-14T07:26:09.048Z,102008
2017-10-14T07:28:37.152Z,102013
2017-10-14T07:31:05.264Z,102020
2017-10-14T07:33:33.351Z,102017
2017-10-14T07:36:01.472Z,102013
2017-10-14T07:38:29.549Z,102015
2017-10-14T07:40:58.407Z,102018
2017-10-14T07:43:26.516Z,102011
2017-10-14T07:45:54.593Z,102011
2017-10-14T07:48:23.485Z,102016
2017-10-14T07:50:51.564Z,102011
2017-10-14T07:53:19.685Z,102012
2017-10-14T07:55:47.775Z,102016
2017-10-14T07:58:15.891Z,102022
2017-10-14T08:00:44.004Z,102024
2017-10-14T08:03:12.095Z,102023
2017-10-14T08:05:40.235Z,102021
2017-10-14T08:08:08.339Z,102027
2017-10-14T08:10:36.428Z,102022
2017-10-14T08:13:04.560Z,102017
2017-10-14T08:15:32.683Z,102016
2017-10-14T08:18:00.780Z,102016
2017-10-14T08:20:29.880Z,102019
2017-10-14T08:22:57.981Z,102022
2017-10-14T08:25:26.057Z,102020
2017-10-14T08:27:54.191Z,102017
2017-10-14T08:30:22.281Z,102021
2017-10-14T08:32:50.387Z,102028
2017-10-14T08:35:18.496Z,102025
2017-10-14T08:37:47.376Z,102016
2017-10-14T08:40:16.224Z,102023
2017-10-14T08:42:44.332Z,102019
2017-10-14T08:45:13.180Z,102012
2017-10-14T08:47:41.261Z,102014
2017-10-14T08:50:09.375Z,102013
2017-10-14T08:52:37.475Z,102018
2017-10-14T08:55:05.581Z,102026
2017-10-14T08:57:33.687Z,102019
2017-10-14T09:00:02.553Z,102024
2017-10-14T09:02:30.674Z,102029
2017-10-14T09:04:58.778Z,102015
2017-10-14T09:07:26.911Z,102027
2017-10-14T09:09:55.993Z,102029
2017-10-14T09:12:24.096Z,102024
2017-10-14T09:14:52.232Z,102028
2017-10-14T09:17:21.101Z,102026
2017-10-14T09:19:49.232Z,102031
2017-10-14T09:22:17.348Z,102028
2017-10-14T09:24:45.468Z,102022
2017-10-14T09:27:13.579Z,102031
2017-10-14T09:29:41.671Z,102030
2017-10-14T09:32:09.768Z,102027
2017-10-14T09:34:38.989Z,102027
2017-10-14T09:37:07.083Z,102026
2017-10-14T09:39:35.205Z,102029
2017-10-14T09:42:03.297Z,102031
2017-10-14T09:44:31.399Z,102036
2017-10-14T09:46:59.511Z,102030
2017-10-14T09:49:27.632Z,102029
2017-10-14T09:51:55.717Z,102025
2017-10-14T09:54:23.816Z,102027
2017-10-14T09:56:52.169Z,102019
2017-10-14T09:59:20.365Z,102032
2017-10-14T10:01:48.489Z,102031
2017-10-14T10:04:16.818Z,102031
2017-10-14T10:06:45.860Z,102025
2017-10-14T10:09:15.053Z,102023
2017-10-14T10:11:43.251Z,102028
2017-10-14T10:14:11.328Z,102020
2017-10-14T10:16:39.444Z,102023
2017-10-14T10:19:07.528Z,102016
2017-10-14T10:21:36.408Z,102014
2017-10-14T10:24:04.751Z,102021
2017-10-14T10:26:32.886Z,102016
2017-10-14T10:29:00.964Z,102011
2017-10-14T10:31:29.045Z,102016
2017-10-14T10:33:57.183Z,102009
2017-10-14T10:36:25.480Z,102014
2017-10-14T10:38:53.591Z,102006
2017-10-14T10:41:21.688Z,102000
2017-10-14T10:43:49.795Z,102005
2017-10-14T10:46:17.903Z,102004
2017-10-14T10:48:45.998Z,102010
2017-10-14T10:51:15.033Z,102004
2017-10-14T10:53:43.169Z,102004
2017-10-14T10:56:11.267Z,102003
2017-10-14T10:58:40.132Z,102001
2017-10-14T11:01:08.233Z,101990
2017-10-14T11:03:36.347Z,101991
2017-10-14T11:06:05.435Z,101979
2017-10-14T11:08:33.516Z,101983
2017-10-14T11:11:01.622Z,101985
2017-10-14T11:13:29.692Z,101981
2017-10-14T11:15:57.807Z,101975
2017-10-14T11:18:25.960Z,101971
2017-10-14T11:20:54.108Z,101969
2017-10-14T11:23:22.203Z,101967
2017-10-14T11:25:50.280Z,101963
2017-10-14T11:28:18.388Z,101964
2017-10-14T11:30:46.516Z,101960
2017-10-14T11:33:15.528Z,101957
2017-10-14T11:35:44.430Z,101958
2017-10-14T11:38:12.520Z,101951
2017-10-14T11:40:40.635Z,101950
2017-10-14T11:43:08.954Z,101946
2017-10-14T11:45:37.064Z,101943
2017-10-14T11:48:05.199Z,101936
2017-10-14T11:50:33.284Z,101929
2017-10-14T11:53:01.409Z,101931
2017-10-14T11:55:29.514Z,101928
2017-10-14T11:57:57.638Z,101920
2017-10-14T12:00:25.713Z,101921
2017-10-14T12:02:53.817Z,101920
2017-10-14T12:05:21.910Z,101915
2017-10-14T12:07:50.002Z,101917
2017-10-14T12:10:18.144Z,101911
2017-10-14T12:12:46.295Z,101913
2017-10-14T12:15:14.658Z,101912
2017-10-14T12:17:42.750Z,101912
2017-10-14T12:20:10.859Z,101910
2017-10-14T12:22:38.936Z,101920
2017-10-14T12:25:07.157Z,101915
2017-10-14T12:27:35.593Z,101919
2017-10-14T12:30:03.692Z,101916
2017-10-14T12:32:31.788Z,101919
2017-10-14T12:34:59.890Z,101908
2017-10-14T12:37:29.096Z,101909
2017-10-14T12:39:57.164Z,101910
2017-10-14T12:42:25.276Z,101915
2017-10-14T12:44:53.355Z,101904
2017-10-14T12:47:21.467Z,101920
2017-10-14T12:49:50.344Z,101919
2017-10-14T12:52:18.464Z,101914
2017-10-14T12:54:46.543Z,101909
2017-10-14T12:57:14.636Z,101912
2017-10-14T12:59:42.740Z,101914
2017-10-14T13:02:10.841Z,101919
2017-10-14T13:04:39.024Z,101918
2017-10-14T13:07:07.120Z,101928
2017-10-14T13:09:35.213Z,101921
2017-10-14T13:12:03.312Z,101915
2017-10-14T13:14:31.390Z,101914
2017-10-14T13:16:59.504Z,101919
2017-10-14T13:19:27.590Z,101912
2017-10-14T13:21:55.696Z,101915
2017-10-14T13:24:24.568Z,101912
2017-10-14T13:26:52.646Z,101907
2017-10-14T13:29:21.519Z,101909
2017-10-14T13:31:49.849Z,101912
2017-10-14T13:34:17.935Z,101909
2017-10-14T13:36:46.040Z,101915
2017-10-14T13:39:14.142Z,101914
2017-10-14T13:41:42.227Z,101911
2017-10-14T13:44:10.315Z,101901
2017-10-14T13:46:38.434Z,101904
2017-10-14T13:49:06.504Z,101908
2017-10-14T13:51:34.603Z,101901
2017-10-14T13:54:03.468Z,101902
2017-10-14T13:56:31.549Z,101900
2017-10-14T13:58:59.667Z,101896
2017-10-14T14:01:27.762Z,101893
2017-10-14T14:03:55.861Z,101902
2017-10-14T14:06:24.958Z,101889
2017-10-14T14:08:53.065Z,101890
2017-10-14T14:11:21.151Z,101878
2017-10-14T14:13:49.260Z,101878
2017-10-14T14:16:17.361Z,101879
2017-10-14T14:18:45.442Z,101864
2017-10-14T14:21:13.562Z,101875
2017-10-14T14:23:41.661Z,101878
2017-10-14T14:26:09.767Z,101873
2017-10-14T14:28:38.033Z,101874
2017-10-14T14:31:06.109Z,101862
2017-10-14T14:33:35.018Z,101875
2017-10-14T14:36:03.111Z,101875
2017-10-14T14:38:31.209Z,101875
2017-10-14T14:40:59.298Z,101876
2017-10-14T14:43:28.157Z,101870
2017-10-14T14:45:56.263Z,101865
2017-10-14T14:48:25.121Z,101864
2017-10-14T14:50:54.133Z,101856
2017-10-14T14:53:22.272Z,101859
2017-10-14T14:55:50.377Z,101870
2017-10-14T14:58:18.483Z,101853
2017-10-14T15:00:46.570Z,101858
2017-10-14T15:03:14.671Z,101857
2017-10-14T15:05:42.767Z,101853
2017-10-14T15:08:10.976Z,101859
2017-10-14T15:10:39.109Z,101854
2017-10-14T15:13:07.207Z,101855
2017-10-14T15:15:36.431Z,101858
2017-10-14T15:18:04.518Z,101859
2017-10-14T15:20:32.632Z,101859
2017-10-14T15:23:00.709Z,101856
2017-10-14T15:25:28.805Z,101856
2017-10-14T15:27:57.740Z,101862
2017-10-14T15:30:25.975Z,101863
2017-10-14T15:32:54.089Z,101861
2017-10-14T15:35:22.169Z,101869
2017-10-14T15:37:50.272Z,101869
2017-10-14T15:40:18.376Z,101870
2017-10-14T15:42:46.780Z,101870
2017-10-14T15:45:15.754Z,101863
2017-10-14T15:47:44.094Z,101861
2017-10-14T15:50:12.219Z,101872
2017-10-14T15:52:40.303Z,101859
2017-10-14T15:55:08.404Z,101862
2017-10-14T15:57:36.486Z,101863
2017-10-14T16:00:04.592Z,101872
2017-10-14T16:02:32.748Z,101870
2017-10-14T16:05:01.629Z,101870
2017-10-14T16:07:29.740Z,101874
2017-10-14T16:09:57.840Z,101876
2017-10-14T16:12:25.960Z,101873
2017-10-14T16:14:54.063Z,101885
2017-10-14T16:17:22.150Z,101889
2017-10-14T16:19:50.248Z,101886
2017-10-14T16:22:18.340Z,101881
2017-10-14T16:24:47.560Z,101887
2017-10-14T16:27:16.631Z,101886
2017-10-14T16:29:44.737Z,101883
2017-10-14T16:32:13.021Z,101888
2017-10-14T16:34:41.218Z,101889
2017-10-14T16:37:09.331Z,101895
2017-10-14T16:39:38.207Z,101897
2017-10-14T16:42:06.320Z,101891
2017-10-14T16:44:34.418Z,101890
2017-10-14T16:47:02.570Z,101889
2017-10-14T16:49:30.660Z,101899
2017-10-14T16:51:58.817Z,101897
2017-10-14T16:54:26.930Z,101904
2017-10-14T16:56:55.022Z,101903
2017-10-14T16:59:23.108Z,101898
2017-10-14T17:01:51.208Z,101901
2017-10-14T17:04:19.320Z,101898
2017-10-14T17:06:47.404Z,101905
2017-10-14T17:09:15.570Z,101907
2017-10-14T17:11:43.696Z,101913
2017-10-14T17:14:12.558Z,101907
2017-10-14T17:16:41.437Z,101907
2017-10-14T17:19:09.565Z,101906
2017-10-14T17:21:37.643Z,101898
2017-10-14T17:24:05.761Z,101907
2017-10-14T17:26:33.881Z,101903
2017-10-14T17:29:01.993Z,101908
2017-10-14T17:31:30.114Z,101909
2017-10-14T17:33:58.204Z,101918
2017-10-14T17:36:26.310Z,101909
2017-10-14T17:38:54.421Z,101901
2017-10-14T17:41:22.525Z,101903
2017-10-14T17:43:50.835Z,101904
2017-10-14T17:46:18.933Z,101901
2017-10-14T17:48:47.007Z,101905
2017-10-14T17:51:15.128Z,101904
2017-10-14T17:53:43.213Z,101907
2017-10-14T17:56:11.317Z,101909
2017-10-14T17:58:40.198Z,101904
2017-10-14T18:01:09.075Z,101907
2017-10-14T18:03:37.193Z,101902
2017-10-14T18:06:05.349Z,101904
2017-10-14T18:08:34.304Z,101922
2017-10-14T18:11:03.488Z,101916
2017-10-14T18:13:31.569Z,101917
2017-10-14T18:15:59.687Z,101911
2017-10-14T18:18:27.812Z,101913
2017-10-14T18:20:56.836Z,101907
2017-10-14T18:23:25.684Z,101916
2017-10-14T18:25:53.780Z,101910
2017-10-14T18:28:21.876Z,101907
2017-10-14T18:30:50.729Z,101903
2017-10-14T18:33:18.828Z,101912
2017-10-14T18:35:47.680Z,101916
2017-10-14T18:38:15.800Z,101910
2017-10-14T18:40:43.892Z,101922
2017-10-14T18:43:12.011Z,101916
2017-10-14T18:45:40.105Z,101925
2017-10-14T18:48:08.201Z,101922
2017-10-14T18:50:36.295Z,101924
2017-10-14T18:53:04.391Z,101915
2017-10-14T18:55:34.076Z,101921
2017-10-14T18:58:02.184Z,101929
2017-10-14T19:00:30.284Z,101929
2017-10-14T19:02:58.404Z,101935
2017-10-14T19:05:27.591Z,101928
2017-10-14T19:07:56.666Z,101926
2017-10-14T19:10:24.775Z,101923
2017-10-14T19:12:52.863Z,101930
2017-10-14T19:15:21.065Z,101926
2017-10-14T19:17:49.168Z,101922
2017-10-14T19:20:17.285Z,101923
2017-10-14T19:22:45.371Z,101927
2017-10-14T19:25:14.062Z,101925
2017-10-14T19:27:42.184Z,101921
2017-10-14T19:30:10.268Z,101928
2017-10-14T19:32:38.429Z,101921
2017-10-14T19:35:06.539Z,101919
2017-10-14T19:37:34.637Z,101923
2017-10-14T19:40:03.644Z,101925
2017-10-14T19:42:32.493Z,101917
2017-10-14T19:45:00.602Z,101919
2017-10-14T19:47:29.483Z,101923
2017-10-14T19:49:58.380Z,101921
2017-10-14T19:52:27.416Z,101919
2017-10-14T19:54:55.528Z,101919
2017-10-14T19:57:24.371Z,101921
2017-10-14T19:59:52.461Z,101918
2017-10-14T20:02:20.547Z,101922
2017-10-14T20:04:48.656Z,101915
2017-10-14T20:07:17.520Z,101922
2017-10-14T20:09:45.617Z,101930
2017-10-14T20:12:13.728Z,101925
2017-10-14T20:14:41.813Z,101924
2017-10-14T20:17:09.928Z,101921
2017-10-14T20:19:38.998Z,101920
2017-10-14T20:22:07.236Z,101920
2017-10-14T20:24:35.349Z,101922
2017-10-14T20:27:03.440Z,101925
2017-10-14T20:29:31.571Z,101920
2017-10-14T20:31:59.673Z,101917
2017-10-14T20:34:27.766Z,101922
2017-10-14T20:36:56.853Z,101919
2017-10-14T20:39:24.948Z,101920
2017-10-14T20:41:53.148Z,101919
2017-10-14T20:44:21.248Z,101910
2017-10-14T20:46:49.371Z,101921
2017-10-14T20:49:17.488Z,101926
2017-10-14T20:51:45.613Z,101926
2017-10-14T20:54:13.732Z,101928
2017-10-14T20:56:41.869Z,101933
2017-10-14T20:59:09.969Z,101934
2017-10-14T21:01:38.062Z,101935
2017-10-14T21:04:06.163Z,101933
2017-10-14T21:06:34.337Z,101932
2017-10-14T21:09:02.428Z,101925
2017-10-14T21:11:30.533Z,101922
2017-10-14T21:13:58.633Z,101921
2017-10-14T21:16:26.752Z,101925
2017-10-14T21:18:54.837Z,101914
2017-10-14T21:21:22.948Z,101911
2017-10-14T21:23:51.080Z,101908
2017-10-14T21:26:19.164Z,101908
2017-10-14T21:28:48.028Z,101908
2017-10-14T21:31:16.129Z,101900
2017-10-14T21:33:44.245Z,101902
2017-10-14T21:36:12.331Z,101895
2017-10-14T21:38:40.452Z,101892
2017-10-14T21:41:08.545Z,101887
2017-10-14T21:43:37.777Z,101885
2017-10-14T21:46:05.974Z,101875
2017-10-14T21:48:34.086Z,101877
2017-10-14T21:51:02.158Z,101887
2017-10-14T21:53:31.292Z,101891
2017-10-14T21:56:00.154Z,101887
2017-10-14T21:58:28.252Z,101886
2017-10-14T22:00:56.351Z,101879
2017-10-14T22:03:24.436Z,101870
2017-10-14T22:05:52.537Z,101869
2017-10-14T22:08:20.634Z,101865
2017-10-14T22:10:49.552Z,101859
2017-10-14T22:13:17.644Z,101863
2017-10-14T22:15:45.732Z,101856
2017-10-14T22:18:13.836Z,101861
2017-10-14T22:20:41.920Z,101870
2017-10-14T22:23:10.039Z,101857
2017-10-14T22:25:38.108Z,101857
2017-10-14T22:28:06.265Z,101803
2017-10-14T22:30:34.343Z,101850
2017-10-14T22:33:02.436Z,101855
2017-10-14T22:35:30.523Z,101850
2017-10-14T22:37:58.688Z,101846
2017-10-14T22:40:26.782Z,101848
2017-10-14T22:42:54.901Z,101823
2017-10-14T22:45:22.996Z,101855
2017-10-14T22:47:51.084Z,101849
2017-10-14T22:50:19.182Z,101848
2017-10-14T22:52:48.997Z,101846
2017-10-14T22:55:17.091Z,101845
2017-10-14T22:57:45.212Z,101845
2017-10-14T23:00:13.354Z,101831
2017-10-14T23:02:41.456Z,101831
2017-10-14T23:05:09.575Z,101831
2017-10-14T23:07:38.428Z,101832
2017-10-14T23:10:06.516Z,101840
2017-10-14T23:12:35.372Z,101830
2017-10-14T23:15:03.463Z,101835
2017-10-14T23:17:31.582Z,101838
2017-10-14T23:19:59.688Z,101835
2017-10-14T23:22:27.760Z,101835
2017-10-14T23:24:55.857Z,101828
2017-10-14T23:27:23.954Z,101833
2017-10-14T23:29:52.831Z,101828
2017-10-14T23:32:21.697Z,101830
2017-10-14T23:34:49.807Z,101823
2017-10-14T23:37:17.923Z,101825
2017-10-14T23:39:46.079Z,101818
2017-10-14T23:42:14.180Z,101819
2017-10-14T23:44:42.548Z,101822
2017-10-14T23:47:10.636Z,101822
2017-10-14T23:49:38.775Z,101823
2017-10-14T23:52:06.881Z,101820
2017-10-14T23:54:34.963Z,101823
2017-10-14T23:57:03.094Z,101830
2017-10-14T23:59:31.175Z,101823
